createdAt,value
2022-11-22T00:00:08.699Z,98699.59
2022-11-22T00:00:31.183Z,98693.28
2022-11-22T00:00:52.823Z,98693.28
2022-11-22T00:01:14.396Z,98693.34
2022-11-22T00:01:36.039Z,98677.66
2022-11-22T00:01:58.690Z,98694.13
2022-11-22T00:02:20.420Z,98699.44
2022-11-22T00:02:42.112Z,98683.50
2022-11-22T00:03:03.752Z,98697.06
2022-11-22T00:03:26.306Z,98697.03
2022-11-22T00:03:47.888Z,98693.28
2022-11-22T00:04:09.580Z,98693.94
2022-11-22T00:04:31.162Z,98698.19
2022-11-22T00:04:53.735Z,98684.84
2022-11-22T00:05:15.407Z,98685.22
2022-11-22T00:05:37.484Z,98694.72
2022-11-22T00:06:00.006Z,98684.78
2022-11-22T00:06:21.605Z,98700.19
2022-11-22T00:06:43.195Z,98690.91
2022-11-22T00:07:04.946Z,98694.22
2022-11-22T00:07:27.797Z,98696.38
2022-11-22T00:07:49.570Z,98690.16
2022-11-22T00:08:11.513Z,98695.44
2022-11-22T00:08:35.399Z,98692.22
2022-11-22T00:08:56.979Z,98685.59
2022-11-22T00:09:18.594Z,98685.22
2022-11-22T00:09:40.217Z,98683.53
2022-11-22T00:10:02.768Z,98681.47
2022-11-22T00:10:24.454Z,98663.91
2022-11-22T00:10:48.581Z,98681.97
2022-11-22T00:11:11.331Z,98678.50
2022-11-22T00:11:32.892Z,98671.19
2022-11-22T00:11:54.483Z,98672.75
2022-11-22T00:12:16.060Z,98668.28
2022-11-22T00:12:39.359Z,98670.66
2022-11-22T00:13:01.861Z,98673.69
2022-11-22T00:13:23.453Z,98685.03
2022-11-22T00:13:45.011Z,98674.88
2022-11-22T00:14:07.634Z,98681.41
2022-11-22T00:14:29.230Z,98678.47
2022-11-22T00:14:56.561Z,98676.31
2022-11-22T00:15:18.530Z,98676.81
2022-11-22T00:15:41.082Z,98682.66
2022-11-22T00:16:04.731Z,98681.81
2022-11-22T00:16:26.325Z,98677.81
2022-11-22T00:16:47.895Z,98681.25
2022-11-22T00:17:09.455Z,98682.34
2022-11-22T00:17:33.400Z,98685.53
2022-11-22T00:17:55.140Z,98675.13
2022-11-22T00:18:16.809Z,98675.88
2022-11-22T00:18:38.410Z,98680.22
2022-11-22T00:19:01.187Z,98680.47
2022-11-22T00:19:22.873Z,98677.06
2022-11-22T00:19:44.466Z,98677.72
2022-11-22T00:20:08.598Z,98673.25
2022-11-22T00:20:31.167Z,98678.72
2022-11-22T00:20:52.703Z,98686.66
2022-11-22T00:21:14.305Z,98671.94
2022-11-22T00:21:35.919Z,98676.13
2022-11-22T00:21:57.488Z,98688.63
2022-11-22T00:22:20.113Z,98688.72
2022-11-22T00:22:44.818Z,98686.31
2022-11-22T00:23:06.689Z,98685.50
2022-11-22T00:23:28.354Z,98683.59
2022-11-22T00:23:56.785Z,98678.28
2022-11-22T00:24:18.544Z,98678.72
2022-11-22T00:24:40.132Z,98691.31
2022-11-22T00:25:01.917Z,98684.63
2022-11-22T00:25:24.468Z,98679.03
2022-11-22T00:25:46.419Z,98680.81
2022-11-22T00:26:11.821Z,98674.31
2022-11-22T00:26:33.436Z,98680.00
2022-11-22T00:26:56.009Z,98679.03
2022-11-22T00:27:17.762Z,98680.19
2022-11-22T00:27:39.369Z,98675.38
2022-11-22T00:28:01.972Z,98673.25
2022-11-22T00:28:23.596Z,98674.38
2022-11-22T00:28:45.319Z,98681.50
2022-11-22T00:29:06.926Z,98677.25
2022-11-22T00:29:29.755Z,98672.69
2022-11-22T00:29:51.607Z,98674.03
2022-11-22T00:30:13.497Z,98671.44
2022-11-22T00:30:35.141Z,98667.78
2022-11-22T00:30:57.741Z,98673.72
2022-11-22T00:31:19.347Z,98668.66
2022-11-22T00:31:40.985Z,98666.38
2022-11-22T00:32:02.503Z,98663.72
2022-11-22T00:32:25.060Z,98673.09
2022-11-22T00:32:46.779Z,98669.38
2022-11-22T00:33:08.365Z,98666.84
2022-11-22T00:33:29.998Z,98668.38
2022-11-22T00:33:52.610Z,98670.81
2022-11-22T00:34:14.246Z,98666.56
2022-11-22T00:34:35.825Z,98664.78
2022-11-22T00:34:57.418Z,98668.00
2022-11-22T00:35:20.201Z,98675.09
2022-11-22T00:35:41.764Z,98673.66
2022-11-22T00:36:03.640Z,98666.66
2022-11-22T00:36:25.282Z,98666.66
2022-11-22T00:36:47.867Z,98677.75
2022-11-22T00:37:09.682Z,98674.03
2022-11-22T00:37:31.741Z,98673.75
2022-11-22T00:37:53.386Z,98669.50
2022-11-22T00:38:14.954Z,98682.28
2022-11-22T00:38:37.451Z,98676.31
2022-11-22T00:39:00.445Z,98682.53
2022-11-22T00:39:22.069Z,98677.59
2022-11-22T00:39:43.668Z,98676.88
2022-11-22T00:40:08.049Z,98674.69
2022-11-22T00:40:31.155Z,98677.03
2022-11-22T00:40:53.306Z,98681.19
2022-11-22T00:41:15.662Z,98675.81
2022-11-22T00:41:38.548Z,98671.28
2022-11-22T00:42:01.269Z,98676.13
2022-11-22T00:42:27.261Z,98674.03
2022-11-22T00:42:50.523Z,98675.75
2022-11-22T00:43:12.120Z,98679.81
2022-11-22T00:43:34.080Z,98680.84
2022-11-22T00:43:57.312Z,98669.88
2022-11-22T00:44:20.723Z,98674.97
2022-11-22T00:44:42.672Z,98680.84
2022-11-22T00:45:07.213Z,98670.53
2022-11-22T00:45:29.265Z,98669.59
2022-11-22T00:45:53.633Z,98670.16
2022-11-22T00:46:15.880Z,98673.75
2022-11-22T00:46:37.794Z,98675.47
2022-11-22T00:46:59.523Z,98675.09
2022-11-22T00:47:22.440Z,98689.94
2022-11-22T00:47:46.080Z,98687.19
2022-11-22T00:48:10.121Z,98681.13
2022-11-22T00:48:31.809Z,98685.41
2022-11-22T00:48:53.402Z,98680.75
2022-11-22T00:49:16.821Z,98687.69
2022-11-22T00:49:39.938Z,98681.91
2022-11-22T00:50:04.664Z,98676.13
2022-11-22T00:50:26.322Z,98679.16
2022-11-22T00:50:50.171Z,98684.19
2022-11-22T00:51:12.225Z,98682.00
2022-11-22T00:51:33.762Z,98677.63
2022-11-22T00:51:55.286Z,98670.34
2022-11-22T00:52:17.827Z,98664.28
2022-11-22T00:52:39.493Z,98670.06
2022-11-22T00:53:01.105Z,98661.91
2022-11-22T00:53:22.808Z,98656.44
2022-11-22T00:53:45.424Z,98660.69
2022-11-22T00:54:08.697Z,98672.06
2022-11-22T00:54:30.271Z,98666.66
2022-11-22T00:54:55.021Z,98667.44
2022-11-22T00:55:17.015Z,98663.84
2022-11-22T00:55:38.633Z,98668.22
2022-11-22T00:56:00.233Z,98665.25
2022-11-22T00:56:22.841Z,98675.00
2022-11-22T00:56:44.456Z,98677.75
2022-11-22T00:57:06.326Z,98672.66
2022-11-22T00:57:27.967Z,98672.38
2022-11-22T00:57:50.533Z,98673.22
2022-11-22T00:58:12.101Z,98665.56
2022-11-22T00:58:33.753Z,98674.25
2022-11-22T00:58:55.361Z,98670.84
2022-11-22T00:59:17.029Z,98670.94
2022-11-22T00:59:39.653Z,98681.25
2022-11-22T01:00:01.418Z,98666.56
2022-11-22T01:00:23.236Z,98670.81
2022-11-22T01:00:44.891Z,98673.47
2022-11-22T01:01:07.608Z,98671.78
2022-11-22T01:01:29.441Z,98669.56
2022-11-22T01:01:51.116Z,98652.38
2022-11-22T01:02:12.730Z,98672.13
2022-11-22T01:02:35.335Z,98664.69
2022-11-22T01:02:56.897Z,98666.09
2022-11-22T01:03:18.490Z,98659.47
2022-11-22T01:03:40.165Z,98662.84
2022-11-22T01:04:02.738Z,98661.81
2022-11-22T01:04:24.334Z,98659.19
2022-11-22T01:04:46.018Z,98665.91
2022-11-22T01:05:08.197Z,98662.22
2022-11-22T01:05:30.784Z,98666.38
2022-11-22T01:05:52.535Z,98659.09
2022-11-22T01:06:14.161Z,98663.34
2022-11-22T01:06:35.750Z,98668.56
2022-11-22T01:06:58.263Z,98664.03
2022-11-22T01:07:19.883Z,98664.19
2022-11-22T01:07:41.601Z,98664.19
2022-11-22T01:08:03.778Z,98669.41
2022-11-22T01:08:26.313Z,98657.88
2022-11-22T01:08:48.139Z,98667.63
2022-11-22T01:09:16.542Z,98670.84
2022-11-22T01:09:38.117Z,98670.63
2022-11-22T01:10:00.656Z,98670.56
2022-11-22T01:10:23.038Z,98673.88
2022-11-22T01:10:44.706Z,98676.31
2022-11-22T01:11:06.361Z,98681.25
2022-11-22T01:11:28.023Z,98683.81
2022-11-22T01:11:51.238Z,98668.72
2022-11-22T01:12:12.848Z,98686.84
2022-11-22T01:12:34.429Z,98681.25
2022-11-22T01:12:57.487Z,98689.00
2022-11-22T01:13:20.022Z,98685.34
2022-11-22T01:13:41.603Z,98679.81
2022-11-22T01:14:03.312Z,98685.03
2022-11-22T01:14:24.993Z,98681.44
2022-11-22T01:15:10.481Z,98683.97
2022-11-22T01:15:33.310Z,98679.72
2022-11-22T01:16:00.426Z,98690.06
2022-11-22T01:16:24.679Z,98688.63
2022-11-22T01:16:52.375Z,98678.13
2022-11-22T01:17:17.362Z,98683.97
2022-11-22T01:17:41.155Z,98692.06
2022-11-22T01:18:03.187Z,98686.19
2022-11-22T01:18:29.192Z,98687.47
2022-11-22T01:18:53.518Z,98692.63
2022-11-22T01:19:16.530Z,98696.22
2022-11-22T01:19:43.220Z,98694.50
2022-11-22T01:20:09.357Z,98701.59
2022-11-22T01:20:32.789Z,98696.31
2022-11-22T01:20:58.254Z,98687.41
2022-11-22T01:21:20.151Z,98691.00
2022-11-22T01:21:45.326Z,98691.19
2022-11-22T01:22:12.818Z,98683.31
2022-11-22T01:22:37.367Z,98684.09
2022-11-22T01:23:00.324Z,98680.69
2022-11-22T01:23:22.154Z,98676.13
2022-11-22T01:23:47.559Z,98683.03
2022-11-22T01:24:15.458Z,98675.94
2022-11-22T01:24:45.892Z,98677.94
2022-11-22T01:25:11.820Z,98664.56
2022-11-22T01:25:35.462Z,98664.47
2022-11-22T01:25:58.022Z,98658.31
2022-11-22T01:26:22.511Z,98656.81
2022-11-22T01:26:45.132Z,98665.63
2022-11-22T01:27:08.841Z,98667.22
2022-11-22T01:27:31.815Z,98662.88
2022-11-22T01:27:54.130Z,98676.78
2022-11-22T01:28:16.448Z,98674.22
2022-11-22T01:28:39.559Z,98672.34
2022-11-22T01:29:03.469Z,98680.28
2022-11-22T01:29:26.740Z,98682.59
2022-11-22T01:29:48.518Z,98682.47
2022-11-22T01:30:12.605Z,98693.09
2022-11-22T01:30:34.233Z,98691.56
2022-11-22T01:30:57.244Z,98687.22
2022-11-22T01:31:18.914Z,98696.78
2022-11-22T01:31:41.795Z,98702.84
2022-11-22T01:32:05.656Z,98686.00
2022-11-22T01:32:28.504Z,98687.59
2022-11-22T01:32:51.340Z,98696.88
2022-11-22T01:33:13.968Z,98700.19
2022-11-22T01:33:43.567Z,98699.25
2022-11-22T01:34:06.949Z,98702.66
2022-11-22T01:34:32.231Z,98699.03
2022-11-22T01:34:56.912Z,98694.22
2022-11-22T01:35:19.578Z,98700.47
2022-11-22T01:35:41.499Z,98706.53
2022-11-22T01:36:03.265Z,98694.59
2022-11-22T01:36:26.010Z,98700.16
2022-11-22T01:36:47.567Z,98701.88
2022-11-22T01:37:09.485Z,98700.00
2022-11-22T01:37:31.083Z,98698.28
2022-11-22T01:37:53.666Z,98700.00
2022-11-22T01:38:15.304Z,98697.41
2022-11-22T01:38:36.922Z,98696.38
2022-11-22T01:38:58.522Z,98699.91
2022-11-22T01:39:22.507Z,98696.69
2022-11-22T01:39:44.330Z,98694.50
2022-11-22T01:40:07.290Z,98687.41
2022-11-22T01:40:29.578Z,98692.50
2022-11-22T01:40:52.156Z,98692.41
2022-11-22T01:41:14.104Z,98698.28
2022-11-22T01:41:35.872Z,98680.22
2022-11-22T01:41:57.696Z,98696.38
2022-11-22T01:42:20.239Z,98691.63
2022-11-22T01:42:49.065Z,98698.22
2022-11-22T01:43:16.271Z,98694.78
2022-11-22T01:43:39.247Z,98698.88
2022-11-22T01:44:19.552Z,98707.41
2022-11-22T01:44:42.967Z,98703.69
2022-11-22T01:45:41.189Z,98708.63
2022-11-22T01:46:06.024Z,98702.66
2022-11-22T01:46:32.645Z,98715.16
2022-11-22T01:46:57.460Z,98708.91
2022-11-22T01:47:22.594Z,98700.75
2022-11-22T01:47:44.245Z,98709.28
2022-11-22T01:48:14.751Z,98703.03
2022-11-22T01:48:46.275Z,98714.28
2022-11-22T01:49:15.605Z,98705.47
2022-11-22T01:49:41.802Z,98717.78
2022-11-22T01:50:07.308Z,98707.19
2022-11-22T01:50:32.788Z,98718.66
2022-11-22T01:50:59.284Z,98721.22
2022-11-22T01:51:26.082Z,98716.56
2022-11-22T01:51:53.593Z,98713.69
2022-11-22T01:52:19.515Z,98719.84
2022-11-22T01:52:41.312Z,98716.25
2022-11-22T01:53:07.026Z,98718.06
2022-11-22T01:53:33.043Z,98717.22
2022-11-22T01:53:59.830Z,98719.13
2022-11-22T01:54:25.768Z,98715.31
2022-11-22T01:54:53.250Z,98710.00
2022-11-22T01:55:15.602Z,98711.81
2022-11-22T01:55:37.364Z,98715.31
2022-11-22T01:56:02.026Z,98710.88
2022-11-22T01:56:24.818Z,98717.03
2022-11-22T01:56:50.364Z,98720.41
2022-11-22T01:57:16.789Z,98710.66
2022-11-22T01:57:42.778Z,98711.72
2022-11-22T01:58:04.710Z,98718.75
2022-11-22T01:58:29.822Z,98707.28
2022-11-22T01:58:55.598Z,98713.31
2022-11-22T01:59:23.341Z,98707.91
2022-11-22T01:59:49.205Z,98712.38
2022-11-22T02:00:14.168Z,98709.63
2022-11-22T02:00:40.608Z,98712.28
2022-11-22T02:01:02.683Z,98699.97
2022-11-22T02:01:24.486Z,98707.91
2022-11-22T02:01:47.336Z,98703.56
2022-11-22T02:02:09.029Z,98706.84
2022-11-22T02:02:30.841Z,98704.03
2022-11-22T02:02:58.624Z,98710.47
2022-11-22T02:03:21.962Z,98706.97
2022-11-22T02:03:48.206Z,98714.94
2022-11-22T02:04:14.175Z,98707.34
2022-11-22T02:04:37.262Z,98712.75
2022-11-22T02:05:02.626Z,98719.50
2022-11-22T02:05:28.270Z,98719.28
2022-11-22T02:05:52.038Z,98725.38
2022-11-22T02:06:14.543Z,98719.97
2022-11-22T02:06:43.167Z,98725.16
2022-11-22T02:07:11.110Z,98727.94
2022-11-22T02:07:41.667Z,98721.31
2022-11-22T02:08:09.085Z,98716.75
2022-11-22T02:08:38.732Z,98721.88
2022-11-22T02:09:07.115Z,98724.44
2022-11-22T02:09:31.017Z,98713.91
2022-11-22T02:09:53.532Z,98722.50
2022-11-22T02:10:20.519Z,98714.47
2022-11-22T02:10:46.495Z,98725.00
2022-11-22T02:11:09.712Z,98719.56
2022-11-22T02:11:34.288Z,98719.38
2022-11-22T02:12:00.912Z,98722.03
2022-11-22T02:12:27.870Z,98718.44
2022-11-22T02:12:51.697Z,98732.38
2022-11-22T02:13:14.657Z,98730.84
2022-11-22T02:13:39.456Z,98734.38
2022-11-22T02:14:03.470Z,98731.59
2022-11-22T02:14:26.998Z,98723.94
2022-11-22T02:14:49.445Z,98732.75
2022-11-22T02:15:11.617Z,98728.28
2022-11-22T02:15:35.261Z,98730.00
2022-11-22T02:15:59.040Z,98730.00
2022-11-22T02:16:20.958Z,98737.88
2022-11-22T02:16:43.918Z,98730.09
2022-11-22T02:17:06.714Z,98731.50
2022-11-22T02:17:28.567Z,98735.97
2022-11-22T02:17:50.215Z,98738.63
2022-11-22T02:18:13.354Z,98741.19
2022-11-22T02:18:36.902Z,98735.88
2022-11-22T02:18:59.510Z,98745.53
2022-11-22T02:19:26.271Z,98738.53
2022-11-22T02:19:50.708Z,98746.41
2022-11-22T02:20:12.979Z,98737.88
2022-11-22T02:20:35.531Z,98745.53
2022-11-22T02:20:58.549Z,98728.22
2022-11-22T02:21:23.258Z,98745.44
2022-11-22T02:21:50.333Z,98740.13
2022-11-22T02:22:21.423Z,98740.97
2022-11-22T02:22:51.883Z,98746.19
2022-11-22T02:23:22.444Z,98744.47
2022-11-22T02:23:52.424Z,98745.25
2022-11-22T02:24:20.645Z,98733.78
2022-11-22T02:24:51.606Z,98740.78
2022-11-22T02:25:27.230Z,98746.75
2022-11-22T02:25:55.435Z,98745.91
2022-11-22T02:26:18.339Z,98743.34
2022-11-22T02:26:40.456Z,98746.94
2022-11-22T02:27:03.029Z,98743.53
2022-11-22T02:27:26.106Z,98749.59
2022-11-22T02:27:51.841Z,98744.28
2022-11-22T02:28:16.396Z,98739.56
2022-11-22T02:28:40.130Z,98747.06
2022-11-22T02:29:10.161Z,98748.00
2022-11-22T02:29:34.367Z,98744.47
2022-11-22T02:29:56.309Z,98748.06
2022-11-22T02:30:20.686Z,98740.31
2022-11-22T02:30:46.173Z,98744.41
2022-11-22T02:31:10.587Z,98743.53
2022-11-22T02:31:35.577Z,98746.19
2022-11-22T02:31:59.904Z,98750.66
2022-11-22T02:32:22.681Z,98752.34
2022-11-22T02:32:47.072Z,98743.75
2022-11-22T02:33:09.294Z,98748.19
2022-11-22T02:33:32.121Z,98742.03
2022-11-22T02:33:57.536Z,98755.31
2022-11-22T02:34:24.904Z,98750.72
2022-11-22T02:34:49.701Z,98757.00
2022-11-22T02:35:19.204Z,98738.25
2022-11-22T02:35:42.691Z,98734.47
2022-11-22T02:36:07.148Z,98753.38
2022-11-22T02:36:33.371Z,98756.91
2022-11-22T02:36:58.748Z,98755.19
2022-11-22T02:37:25.233Z,98745.94
2022-11-22T02:37:52.333Z,98749.31
2022-11-22T02:38:18.138Z,98751.78
2022-11-22T02:38:41.153Z,98756.25
2022-11-22T02:39:03.196Z,98744.41
2022-11-22T02:39:31.066Z,98744.72
2022-11-22T02:40:01.207Z,98745.84
2022-11-22T02:40:25.376Z,98751.22
2022-11-22T02:40:53.479Z,98738.25
2022-11-22T02:41:20.630Z,98757.41
2022-11-22T02:41:45.937Z,98746.88
2022-11-22T02:42:09.947Z,98749.03
2022-11-22T02:42:34.053Z,98757.97
2022-11-22T02:43:10.384Z,98759.38
2022-11-22T02:43:36.809Z,98752.41
2022-11-22T02:44:02.297Z,98761.00
2022-11-22T02:44:25.231Z,98766.50
2022-11-22T02:44:49.981Z,98759.38
2022-11-22T02:45:11.601Z,98766.50
2022-11-22T02:45:35.548Z,98758.66
2022-11-22T02:46:03.874Z,98769.16
2022-11-22T02:46:27.268Z,98753.34
2022-11-22T02:46:54.617Z,98767.25
2022-11-22T02:47:16.705Z,98767.19
2022-11-22T02:47:39.110Z,98769.72
2022-11-22T02:48:08.607Z,98761.88
2022-11-22T02:48:30.479Z,98762.59
2022-11-22T02:48:52.082Z,98764.31
2022-11-22T02:49:16.571Z,98768.13
2022-11-22T02:49:39.138Z,98756.00
2022-11-22T02:50:00.685Z,98763.00
2022-11-22T02:50:22.292Z,98768.41
2022-11-22T02:50:44.521Z,98758.44
2022-11-22T02:51:07.078Z,98757.59
2022-11-22T02:51:28.680Z,98756.66
2022-11-22T02:51:50.886Z,98759.22
2022-11-22T02:52:16.217Z,98768.19
2022-11-22T02:52:38.781Z,98761.97
2022-11-22T02:53:00.326Z,98765.38
2022-11-22T02:53:21.901Z,98768.03
2022-11-22T02:53:43.486Z,98755.72
2022-11-22T02:54:06.668Z,98762.53
2022-11-22T02:54:28.242Z,98763.47
2022-11-22T02:54:49.817Z,98754.56
2022-11-22T02:55:11.402Z,98760.53
2022-11-22T02:55:33.304Z,98752.69
2022-11-22T02:55:55.823Z,98755.34
2022-11-22T02:56:20.212Z,98757.13
2022-11-22T02:56:41.884Z,98751.69
2022-11-22T02:57:03.753Z,98750.97
2022-11-22T02:57:25.436Z,98755.34
2022-11-22T02:57:47.996Z,98751.13
2022-11-22T02:58:09.593Z,98751.91
2022-11-22T02:58:31.129Z,98749.47
2022-11-22T02:58:52.725Z,98744.16
2022-11-22T02:59:15.967Z,98750.41
2022-11-22T02:59:37.527Z,98752.19
2022-11-22T02:59:59.348Z,98746.91
2022-11-22T03:00:21.343Z,98745.09
2022-11-22T03:00:44.020Z,98747.75
2022-11-22T03:01:07.752Z,98754.09
2022-11-22T03:01:29.629Z,98746.03
2022-11-22T03:01:51.306Z,98751.25
2022-11-22T03:02:13.957Z,98750.41
2022-11-22T03:02:35.560Z,98752.84
2022-11-22T03:02:57.129Z,98746.59
2022-11-22T03:03:18.788Z,98749.47
2022-11-22T03:03:41.402Z,98750.56
2022-11-22T03:04:03.449Z,98753.06
2022-11-22T03:04:25.382Z,98753.78
2022-11-22T03:04:47.278Z,98759.88
2022-11-22T03:05:09.728Z,98756.34
2022-11-22T03:05:32.303Z,98755.50
2022-11-22T03:05:53.903Z,98751.06
2022-11-22T03:06:15.484Z,98754.47
2022-11-22T03:06:37.063Z,98758.81
2022-11-22T03:06:59.800Z,98755.34
2022-11-22T03:07:22.509Z,98755.13
2022-11-22T03:07:44.343Z,98760.44
2022-11-22T03:08:06.154Z,98755.22
2022-11-22T03:08:27.835Z,98758.56
2022-11-22T03:08:54.725Z,98755.91
2022-11-22T03:09:18.896Z,98758.56
2022-11-22T03:09:40.444Z,98749.63
2022-11-22T03:10:02.048Z,98755.91
2022-11-22T03:10:24.675Z,98755.03
2022-11-22T03:10:46.211Z,98761.38
2022-11-22T03:11:07.785Z,98755.22
2022-11-22T03:11:30.756Z,98758.72
2022-11-22T03:11:54.003Z,98762.22
2022-11-22T03:12:15.641Z,98763.09
2022-11-22T03:12:37.250Z,98766.69
2022-11-22T03:12:59.554Z,98766.69
2022-11-22T03:13:22.142Z,98769.53
2022-11-22T03:13:43.768Z,98764.31
2022-11-22T03:14:05.559Z,98764.31
2022-11-22T03:14:27.247Z,98772.28
2022-11-22T03:14:49.718Z,98782.03
2022-11-22T03:15:11.579Z,98775.78
2022-11-22T03:15:33.287Z,98772.56
2022-11-22T03:15:54.952Z,98778.72
2022-11-22T03:16:16.555Z,98784.69
2022-11-22T03:16:39.162Z,98779.38
2022-11-22T03:17:00.764Z,98771.72
2022-11-22T03:17:22.418Z,98774.28
2022-11-22T03:17:44.002Z,98776.06
2022-11-22T03:18:06.612Z,98776.16
2022-11-22T03:18:28.283Z,98777.88
2022-11-22T03:18:49.867Z,98779.59
2022-11-22T03:19:11.813Z,98772.56
2022-11-22T03:19:34.344Z,98767.25
2022-11-22T03:19:55.911Z,98773.34
2022-11-22T03:20:17.514Z,98771.63
2022-11-22T03:20:39.131Z,98772.38
2022-11-22T03:21:02.220Z,98773.34
2022-11-22T03:21:24.744Z,98775.13
2022-11-22T03:21:46.431Z,98781.31
2022-11-22T03:22:08.179Z,98774.28
2022-11-22T03:22:29.719Z,98776.84
2022-11-22T03:22:51.358Z,98774.06
2022-11-22T03:23:13.943Z,98772.38
2022-11-22T03:23:35.818Z,98781.09
2022-11-22T03:23:57.442Z,98774.94
2022-11-22T03:24:20.226Z,98783.53
2022-11-22T03:24:42.764Z,98789.72
2022-11-22T03:25:05.240Z,98778.16
2022-11-22T03:25:27.488Z,98772.47
2022-11-22T03:25:49.454Z,98788.84
2022-11-22T03:26:13.345Z,98781.88
2022-11-22T03:26:37.148Z,98785.63
2022-11-22T03:26:58.739Z,98787.47
2022-11-22T03:27:20.325Z,98778.72
2022-11-22T03:27:41.912Z,98780.44
2022-11-22T03:28:04.486Z,98776.38
2022-11-22T03:28:26.451Z,98777.88
2022-11-22T03:28:48.007Z,98779.69
2022-11-22T03:29:09.582Z,98789.16
2022-11-22T03:29:32.412Z,98786.41
2022-11-22T03:29:54.110Z,98789.06
2022-11-22T03:30:17.300Z,98789.72
2022-11-22T03:30:42.433Z,98797.59
2022-11-22T03:31:06.276Z,98789.63
2022-11-22T03:31:27.976Z,98785.16
2022-11-22T03:31:49.570Z,98789.63
2022-11-22T03:32:11.509Z,98787.91
2022-11-22T03:32:34.127Z,98790.56
2022-11-22T03:32:55.922Z,98785.63
2022-11-22T03:33:17.554Z,98795.31
2022-11-22T03:33:39.107Z,98795.44
2022-11-22T03:34:01.693Z,98790.13
2022-11-22T03:34:23.293Z,98794.38
2022-11-22T03:34:44.937Z,98795.13
2022-11-22T03:35:07.289Z,98801.25
2022-11-22T03:35:29.806Z,98777.31
2022-11-22T03:35:55.498Z,98798.53
2022-11-22T03:36:17.085Z,98798.53
2022-11-22T03:36:38.642Z,98802.13
2022-11-22T03:37:01.256Z,98798.59
2022-11-22T03:37:22.931Z,98797.78
2022-11-22T03:37:44.518Z,98801.25
2022-11-22T03:38:07.002Z,98798.72
2022-11-22T03:38:28.805Z,98797.78
2022-11-22T03:38:51.508Z,98795.97
2022-11-22T03:39:13.113Z,98791.63
2022-11-22T03:39:34.695Z,98788.19
2022-11-22T03:39:57.257Z,98793.22
2022-11-22T03:40:18.869Z,98789.81
2022-11-22T03:40:40.426Z,98802.88
2022-11-22T03:41:02.120Z,98793.13
2022-11-22T03:41:24.651Z,98780.44
2022-11-22T03:41:47.564Z,98801.25
2022-11-22T03:42:09.177Z,98803.84
2022-11-22T03:42:30.922Z,98804.69
2022-11-22T03:42:52.542Z,98792.78
2022-11-22T03:43:15.119Z,98796.25
2022-11-22T03:43:36.676Z,98793.59
2022-11-22T03:43:58.314Z,98797.03
2022-11-22T03:44:19.863Z,98807.53
2022-11-22T03:44:42.409Z,98804.78
2022-11-22T03:45:04.583Z,98801.19
2022-11-22T03:45:26.255Z,98803.63
2022-11-22T03:45:48.145Z,98804.31
2022-11-22T03:46:14.744Z,98799.88
2022-11-22T03:46:37.291Z,98808.41
2022-11-22T03:46:58.887Z,98788.50
2022-11-22T03:47:20.422Z,98807.25
2022-11-22T03:47:42.176Z,98814.38
2022-11-22T03:48:05.101Z,98810.84
2022-11-22T03:48:26.774Z,98812.56
2022-11-22T03:48:48.408Z,98806.31
2022-11-22T03:49:10.697Z,98801.94
2022-11-22T03:49:32.740Z,98810.56
2022-11-22T03:49:55.401Z,98811.50
2022-11-22T03:50:17.262Z,98811.63
2022-11-22T03:50:38.956Z,98815.09
2022-11-22T03:51:04.992Z,98790.19
2022-11-22T03:51:28.136Z,98812.44
2022-11-22T03:51:49.717Z,98806.31
2022-11-22T03:52:11.607Z,98813.31
2022-11-22T03:52:33.184Z,98809.06
2022-11-22T03:52:55.766Z,98815.03
2022-11-22T03:53:17.341Z,98818.53
2022-11-22T03:53:39.279Z,98815.97
2022-11-22T03:54:00.862Z,98812.66
2022-11-22T03:54:23.528Z,98815.88
2022-11-22T03:54:45.137Z,98817.75
2022-11-22T03:55:07.277Z,98822.97
2022-11-22T03:55:28.900Z,98822.25
2022-11-22T03:55:51.819Z,98822.97
2022-11-22T03:56:14.418Z,98818.53
2022-11-22T03:56:36.142Z,98819.47
2022-11-22T03:56:59.049Z,98821.09
2022-11-22T03:57:20.655Z,98821.25
2022-11-22T03:57:43.455Z,98810.56
2022-11-22T03:58:05.375Z,98816.66
2022-11-22T03:58:26.909Z,98818.31
2022-11-22T03:58:48.466Z,98816.53
2022-11-22T03:59:11.038Z,98814.72
2022-11-22T03:59:32.868Z,98820.81
2022-11-22T03:59:54.488Z,98826.28
2022-11-22T04:00:16.379Z,98819.38
2022-11-22T04:00:39.495Z,98820.81
2022-11-22T04:01:01.498Z,98814.66
2022-11-22T04:01:23.226Z,98813.22
2022-11-22T04:01:44.937Z,98827.72
2022-11-22T04:02:07.597Z,98824.31
2022-11-22T04:02:29.237Z,98826.84
2022-11-22T04:02:50.996Z,98822.53
2022-11-22T04:03:12.559Z,98817.09
2022-11-22T04:03:34.152Z,98825.91
2022-11-22T04:03:56.714Z,98818.81
2022-11-22T04:04:18.406Z,98825.81
2022-11-22T04:04:39.997Z,98815.22
2022-11-22T04:05:03.341Z,98824.03
2022-11-22T04:05:26.245Z,98822.22
2022-11-22T04:05:47.897Z,98813.28
2022-11-22T04:06:09.538Z,98821.25
2022-11-22T04:06:31.142Z,98813.59
2022-11-22T04:06:52.706Z,98817.09
2022-11-22T04:07:15.337Z,98819.00
2022-11-22T04:07:37.206Z,98826.97
2022-11-22T04:07:58.926Z,98825.25
2022-11-22T04:08:20.647Z,98819.88
2022-11-22T04:08:43.226Z,98819.88
2022-11-22T04:09:04.951Z,98819.94
2022-11-22T04:09:26.647Z,98819.75
2022-11-22T04:09:48.296Z,98819.75
2022-11-22T04:10:10.238Z,98822.59
2022-11-22T04:10:32.843Z,98821.53
2022-11-22T04:10:54.546Z,98824.13
2022-11-22T04:11:16.158Z,98831.22
2022-11-22T04:11:38.503Z,98836.44
2022-11-22T04:12:02.402Z,98829.41
2022-11-22T04:12:23.978Z,98825.16
2022-11-22T04:12:45.545Z,98830.47
2022-11-22T04:13:07.151Z,98835.78
2022-11-22T04:13:43.661Z,98832.28
2022-11-22T04:14:23.866Z,98823.53
2022-11-22T04:15:04.207Z,98821.75
2022-11-22T04:15:26.799Z,98821.66
2022-11-22T04:15:49.376Z,98819.09
2022-11-22T04:16:10.969Z,98827.34
2022-11-22T04:16:32.491Z,98821.09
2022-11-22T04:16:54.072Z,98823.84
2022-11-22T04:17:37.403Z,98815.09
2022-11-22T04:17:59.034Z,98828.19
2022-11-22T04:18:20.781Z,98829.22
2022-11-22T04:18:42.464Z,98824.13
2022-11-22T04:19:05.015Z,98821.25
2022-11-22T04:19:26.701Z,98826.50
2022-11-22T04:20:19.652Z,98823.84
2022-11-22T04:20:59.876Z,98826.50
2022-11-22T04:21:33.787Z,98830.84
2022-11-22T04:21:55.339Z,98833.78
2022-11-22T04:22:16.962Z,98832.09
2022-11-22T04:22:39.473Z,98831.16
2022-11-22T04:23:02.762Z,98825.06
2022-11-22T04:23:29.455Z,98830.38
2022-11-22T04:24:10.247Z,98835.75
2022-11-22T04:24:58.569Z,98832.66
2022-11-22T04:25:21.071Z,98830.28
2022-11-22T04:25:44.358Z,98827.63
2022-11-22T04:26:05.917Z,98831.88
2022-11-22T04:26:27.516Z,98829.22
2022-11-22T04:26:49.232Z,98831.78
2022-11-22T04:27:12.181Z,98831.78
2022-11-22T04:27:34.741Z,98823.75
2022-11-22T04:27:57.047Z,98827.34
2022-11-22T04:28:21.251Z,98828.00
2022-11-22T04:29:08.800Z,98828.84
2022-11-22T04:29:25.705Z,98822.78
2022-11-22T04:29:47.264Z,98823.56
2022-11-22T04:30:09.471Z,98830.00
2022-11-22T04:30:49.717Z,98824.63
2022-11-22T04:31:29.975Z,98829.13
2022-11-22T04:32:10.734Z,98831.44
2022-11-22T04:32:50.303Z,98829.50
2022-11-22T04:33:12.361Z,98826.00
2022-11-22T04:33:35.255Z,98834.75
2022-11-22T04:33:56.878Z,98828.38
2022-11-22T04:34:18.504Z,98830.16
2022-11-22T04:34:40.103Z,98831.03
2022-11-22T04:35:02.651Z,98834.44
2022-11-22T04:35:24.282Z,98834.53
2022-11-22T04:35:45.922Z,98836.34
2022-11-22T04:36:12.976Z,98830.16